sensor_id;sensor_type;location;lat;lon;timestamp;temperature;humidity
13440;DHT22;6792;57.698;11.946;2024-03-02T00:02:33;14.50;54.00
13440;DHT22;6792;57.698;11.946;2024-03-02T00:05:04;14.50;54.00
13440;DHT22;6792;57.698;11.946;2024-03-02T00:07:41;14.50;54.00
13440;DHT22;6792;57.698;11.946;2024-03-02T00:10:16;14.50;53.90
13440;DHT22;6792;57.698;11.946;2024-03-02T00:12:52;14.50;54.10
13440;DHT22;6792;57.698;11.946;2024-03-02T00:15:45;15.30;53.80
13440;DHT22;6792;57.698;11.946;2024-03-02T00:18:21;14.50;54.00
13440;DHT22;6792;57.698;11.946;2024-03-02T00:20:55;14.50;54.10
13440;DHT22;6792;57.698;11.946;2024-03-02T00:23:34;14.50;54.10
13440;DHT22;6792;57.698;11.946;2024-03-02T00:29:08;14.50;53.50
13440;DHT22;6792;57.698;11.946;2024-03-02T00:31:43;14.40;54.30
13440;DHT22;6792;57.698;11.946;2024-03-02T00:34:15;14.40;53.60
13440;DHT22;6792;57.698;11.946;2024-03-02T00:36:59;14.40;54.20
13440;DHT22;6792;57.698;11.946;2024-03-02T00:39:31;14.40;54.30
13440;DHT22;6792;57.698;11.946;2024-03-02T00:42:03;14.40;54.10
13440;DHT22;6792;57.698;11.946;2024-03-02T00:44:53;14.40;54.20
13440;DHT22;6792;57.698;11.946;2024-03-02T00:47:23;14.30;53.60
13440;DHT22;6792;57.698;11.946;2024-03-02T00:49:56;14.40;54.30
13440;DHT22;6792;57.698;11.946;2024-03-02T00:52:41;14.40;54.30
13440;DHT22;6792;57.698;11.946;2024-03-02T00:55:15;14.30;53.60
13440;DHT22;6792;57.698;11.946;2024-03-02T00:57:46;14.40;54.20
13440;DHT22;6792;57.698;11.946;2024-03-02T01:00:17;14.40;54.20
13440;DHT22;6792;57.698;11.946;2024-03-02T01:02:47;14.40;54.20
13440;DHT22;6792;57.698;11.946;2024-03-02T01:05:18;14.40;53.60
13440;DHT22;6792;57.698;11.946;2024-03-02T01:07:51;14.40;54.20
13440;DHT22;6792;57.698;11.946;2024-03-02T01:10:20;14.40;54.30
13440;DHT22;6792;57.698;11.946;2024-03-02T01:12:52;14.40;53.60
13440;DHT22;6792;57.698;11.946;2024-03-02T01:15:24;14.40;54.20
13440;DHT22;6792;57.698;11.946;2024-03-02T01:20:35;14.40;53.70
13440;DHT22;6792;57.698;11.946;2024-03-02T01:23:05;14.40;54.20
13440;DHT22;6792;57.698;11.946;2024-03-02T01:25:35;14.30;54.20
13440;DHT22;6792;57.698;11.946;2024-03-02T01:28:05;14.30;54.30
13440;DHT22;6792;57.698;11.946;2024-03-02T01:30:35;14.30;54.30
13440;DHT22;6792;57.698;11.946;2024-03-02T01:33:05;14.30;54.30
13440;DHT22;6792;57.698;11.946;2024-03-02T01:35:34;14.30;54.30
13440;DHT22;6792;57.698;11.946;2024-03-02T01:38:04;14.30;54.30
13440;DHT22;6792;57.698;11.946;2024-03-02T01:40:36;14.20;54.30
13440;DHT22;6792;57.698;11.946;2024-03-02T01:43:07;14.20;54.30
13440;DHT22;6792;57.698;11.946;2024-03-02T01:45:37;14.20;54.40
13440;DHT22;6792;57.698;11.946;2024-03-02T01:48:07;14.20;54.40
13440;DHT22;6792;57.698;11.946;2024-03-02T01:50:38;14.20;54.60
13440;DHT22;6792;57.698;11.946;2024-03-02T01:53:09;14.20;53.80
13440;DHT22;6792;57.698;11.946;2024-03-02T01:55:38;14.20;54.40
13440;DHT22;6792;57.698;11.946;2024-03-02T01:58:13;14.20;54.40
13440;DHT22;6792;57.698;11.946;2024-03-02T02:00:45;14.20;54.50
13440;DHT22;6792;57.698;11.946;2024-03-02T02:03:16;14.20;54.50
13440;DHT22;6792;57.698;11.946;2024-03-02T02:05:46;14.20;54.50
13440;DHT22;6792;57.698;11.946;2024-03-02T02:08:24;14.20;55.00
13440;DHT22;6792;57.698;11.946;2024-03-02T02:10:55;14.10;53.80
13440;DHT22;6792;57.698;11.946;2024-03-02T02:13:27;14.10;53.90
13440;DHT22;6792;57.698;11.946;2024-03-02T02:16:08;14.20;54.00
13440;DHT22;6792;57.698;11.946;2024-03-02T02:21:14;14.10;53.80
13440;DHT22;6792;57.698;11.946;2024-03-02T02:23:43;14.10;54.40
13440;DHT22;6792;57.698;11.946;2024-03-02T02:26:14;14.10;53.80
13440;DHT22;6792;57.698;11.946;2024-03-02T02:28:44;14.00;54.40
13440;DHT22;6792;57.698;11.946;2024-03-02T02:31:15;14.00;54.50
13440;DHT22;6792;57.698;11.946;2024-03-02T02:33:45;14.00;54.60
13440;DHT22;6792;57.698;11.946;2024-03-02T02:36:15;14.00;54.00
13440;DHT22;6792;57.698;11.946;2024-03-02T02:38:46;14.00;54.60
13440;DHT22;6792;57.698;11.946;2024-03-02T02:41:17;14.10;54.60
13440;DHT22;6792;57.698;11.946;2024-03-02T02:43:47;14.10;54.60
13440;DHT22;6792;57.698;11.946;2024-03-02T02:46:17;14.10;54.60
13440;DHT22;6792;57.698;11.946;2024-03-02T02:48:46;14.10;54.50
13440;DHT22;6792;57.698;11.946;2024-03-02T02:51:16;14.20;54.50
13440;DHT22;6792;57.698;11.946;2024-03-02T02:53:46;14.20;54.40
13440;DHT22;6792;57.698;11.946;2024-03-02T02:56:15;14.20;54.40
13440;DHT22;6792;57.698;11.946;2024-03-02T02:58:46;14.20;54.30
13440;DHT22;6792;57.698;11.946;2024-03-02T03:01:17;14.20;54.30
13440;DHT22;6792;57.698;11.946;2024-03-02T03:03:51;14.20;53.70
13440;DHT22;6792;57.698;11.946;2024-03-02T03:06:20;14.20;54.30
13440;DHT22;6792;57.698;11.946;2024-03-02T03:08:50;14.20;54.30
13440;DHT22;6792;57.698;11.946;2024-03-02T03:11:21;14.20;53.70
13440;DHT22;6792;57.698;11.946;2024-03-02T03:13:50;14.10;54.40
13440;DHT22;6792;57.698;11.946;2024-03-02T03:16:21;14.10;54.30
13440;DHT22;6792;57.698;11.946;2024-03-02T03:18:50;14.10;54.30
13440;DHT22;6792;57.698;11.946;2024-03-02T03:21:21;14.10;54.30
13440;DHT22;6792;57.698;11.946;2024-03-02T03:23:51;14.10;54.30
13440;DHT22;6792;57.698;11.946;2024-03-02T03:26:20;14.10;54.30
13440;DHT22;6792;57.698;11.946;2024-03-02T03:28:50;14.10;54.30
13440;DHT22;6792;57.698;11.946;2024-03-02T03:33:56;14.00;53.70
13440;DHT22;6792;57.698;11.946;2024-03-02T03:36:25;14.00;54.30
13440;DHT22;6792;57.698;11.946;2024-03-02T03:38:54;14.00;54.30
13440;DHT22;6792;57.698;11.946;2024-03-02T03:41:33;13.90;54.30
13440;DHT22;6792;57.698;11.946;2024-03-02T03:44:09;13.90;54.30
13440;DHT22;6792;57.698;11.946;2024-03-02T03:46:47;13.90;54.90
13440;DHT22;6792;57.698;11.946;2024-03-02T03:49:32;13.90;54.40
13440;DHT22;6792;57.698;11.946;2024-03-02T03:52:12;13.90;54.50
13440;DHT22;6792;57.698;11.946;2024-03-02T03:55:05;13.80;54.50
13440;DHT22;6792;57.698;11.946;2024-03-02T03:57:50;13.80;54.50
13440;DHT22;6792;57.698;11.946;2024-03-02T04:00:25;13.80;53.90
13440;DHT22;6792;57.698;11.946;2024-03-02T04:03:00;13.80;54.50
13440;DHT22;6792;57.698;11.946;2024-03-02T04:05:31;13.80;54.60
13440;DHT22;6792;57.698;11.946;2024-03-02T04:08:00;13.70;54.60
13440;DHT22;6792;57.698;11.946;2024-03-02T04:10:30;13.70;54.50
13440;DHT22;6792;57.698;11.946;2024-03-02T04:13:01;13.80;54.10
13440;DHT22;6792;57.698;11.946;2024-03-02T04:15:30;13.80;54.70
13440;DHT22;6792;57.698;11.946;2024-03-02T04:18:00;13.80;54.60
13440;DHT22;6792;57.698;11.946;2024-03-02T04:20:30;13.80;54.60
13440;DHT22;6792;57.698;11.946;2024-03-02T04:23:00;13.80;54.60
13440;DHT22;6792;57.698;11.946;2024-03-02T04:25:29;13.80;54.50
13440;DHT22;6792;57.698;11.946;2024-03-02T04:28:02;13.80;54.60
13440;DHT22;6792;57.698;11.946;2024-03-02T04:30:32;13.70;54.50
13440;DHT22;6792;57.698;11.946;2024-03-02T04:33:15;13.70;54.60
13440;DHT22;6792;57.698;11.946;2024-03-02T04:38:34;13.70;54.10
13440;DHT22;6792;57.698;11.946;2024-03-02T04:43:58;13.70;54.10
13440;DHT22;6792;57.698;11.946;2024-03-02T04:46:41;13.60;54.60
13440;DHT22;6792;57.698;11.946;2024-03-02T04:49:17;13.70;54.70
13440;DHT22;6792;57.698;11.946;2024-03-02T04:51:54;13.70;54.70
13440;DHT22;6792;57.698;11.946;2024-03-02T04:54:24;13.70;54.60
13440;DHT22;6792;57.698;11.946;2024-03-02T04:56:57;13.70;54.60
13440;DHT22;6792;57.698;11.946;2024-03-02T04:59:27;13.80;54.60
13440;DHT22;6792;57.698;11.946;2024-03-02T05:01:58;13.80;54.60
13440;DHT22;6792;57.698;11.946;2024-03-02T05:04:29;13.80;54.60
13440;DHT22;6792;57.698;11.946;2024-03-02T05:06:59;13.80;54.50
13440;DHT22;6792;57.698;11.946;2024-03-02T05:09:28;13.80;54.60
13440;DHT22;6792;57.698;11.946;2024-03-02T05:11:58;13.80;54.50
13440;DHT22;6792;57.698;11.946;2024-03-02T05:14:56;13.80;54.00
13440;DHT22;6792;57.698;11.946;2024-03-02T05:17:30;13.70;54.70
13440;DHT22;6792;57.698;11.946;2024-03-02T05:19:59;13.70;54.10
13440;DHT22;6792;57.698;11.946;2024-03-02T05:22:30;13.70;54.60
13440;DHT22;6792;57.698;11.946;2024-03-02T05:25:07;13.70;54.70
13440;DHT22;6792;57.698;11.946;2024-03-02T05:30:25;13.70;54.60
13440;DHT22;6792;57.698;11.946;2024-03-02T05:32:56;13.70;54.50
13440;DHT22;6792;57.698;11.946;2024-03-02T05:38:19;13.80;54.10
13440;DHT22;6792;57.698;11.946;2024-03-02T05:40:50;13.80;54.70
13440;DHT22;6792;57.698;11.946;2024-03-02T05:43:19;13.80;54.60
13440;DHT22;6792;57.698;11.946;2024-03-02T05:45:48;13.80;54.60
13440;DHT22;6792;57.698;11.946;2024-03-02T05:48:18;13.80;54.60
13440;DHT22;6792;57.698;11.946;2024-03-02T05:50:47;13.70;54.60
13440;DHT22;6792;57.698;11.946;2024-03-02T05:53:16;13.70;54.60
13440;DHT22;6792;57.698;11.946;2024-03-02T05:58:29;13.70;54.10
13440;DHT22;6792;57.698;11.946;2024-03-02T06:01:09;13.70;54.70
13440;DHT22;6792;57.698;11.946;2024-03-02T06:03:45;13.70;54.20
13440;DHT22;6792;57.698;11.946;2024-03-02T06:06:15;13.70;54.90
13440;DHT22;6792;57.698;11.946;2024-03-02T06:08:56;13.70;54.90
13440;DHT22;6792;57.698;11.946;2024-03-02T06:11:38;13.70;54.70
13440;DHT22;6792;57.698;11.946;2024-03-02T06:14:09;13.70;54.70
13440;DHT22;6792;57.698;11.946;2024-03-02T06:16:39;13.60;54.70
13440;DHT22;6792;57.698;11.946;2024-03-02T06:19:08;13.60;54.70
13440;DHT22;6792;57.698;11.946;2024-03-02T06:21:37;13.60;54.80
13440;DHT22;6792;57.698;11.946;2024-03-02T06:24:08;13.60;54.70
13440;DHT22;6792;57.698;11.946;2024-03-02T06:26:37;13.60;54.80
13440;DHT22;6792;57.698;11.946;2024-03-02T06:29:07;13.60;54.80
13440;DHT22;6792;57.698;11.946;2024-03-02T06:31:36;13.50;54.20
13440;DHT22;6792;57.698;11.946;2024-03-02T06:34:20;13.50;54.80
13440;DHT22;6792;57.698;11.946;2024-03-02T06:36:55;13.50;54.30
13440;DHT22;6792;57.698;11.946;2024-03-02T06:39:26;13.50;55.00
13440;DHT22;6792;57.698;11.946;2024-03-02T06:41:56;13.50;55.10
13440;DHT22;6792;57.698;11.946;2024-03-02T06:47:08;13.50;54.50
13440;DHT22;6792;57.698;11.946;2024-03-02T06:49:37;13.50;55.00
13440;DHT22;6792;57.698;11.946;2024-03-02T06:52:06;13.50;55.10
13440;DHT22;6792;57.698;11.946;2024-03-02T06:57:55;13.50;54.60
13440;DHT22;6792;57.698;11.946;2024-03-02T07:00:26;13.50;55.30
13440;DHT22;6792;57.698;11.946;2024-03-02T07:02:59;13.50;54.70
13440;DHT22;6792;57.698;11.946;2024-03-02T07:05:29;13.60;55.30
13440;DHT22;6792;57.698;11.946;2024-03-02T07:07:58;13.60;55.30
13440;DHT22;6792;57.698;11.946;2024-03-02T07:10:29;13.60;55.30
13440;DHT22;6792;57.698;11.946;2024-03-02T07:12:58;13.60;55.40
13440;DHT22;6792;57.698;11.946;2024-03-02T07:15:27;13.60;55.30
13440;DHT22;6792;57.698;11.946;2024-03-02T07:18:11;13.60;55.30
13440;DHT22;6792;57.698;11.946;2024-03-02T07:23:22;13.60;54.80
13440;DHT22;6792;57.698;11.946;2024-03-02T07:28:25;13.60;54.80
13440;DHT22;6792;57.698;11.946;2024-03-02T07:30:59;13.70;54.90
13440;DHT22;6792;57.698;11.946;2024-03-02T07:33:28;13.70;55.70
13440;DHT22;6792;57.698;11.946;2024-03-02T07:35:59;13.70;55.40
13440;DHT22;6792;57.698;11.946;2024-03-02T07:38:30;13.70;55.50
13440;DHT22;6792;57.698;11.946;2024-03-02T07:41:02;13.60;54.80
13440;DHT22;6792;57.698;11.946;2024-03-02T07:43:32;13.70;54.90
13440;DHT22;6792;57.698;11.946;2024-03-02T07:46:03;13.70;55.60
13440;DHT22;6792;57.698;11.946;2024-03-02T07:48:33;13.70;55.50
13440;DHT22;6792;57.698;11.946;2024-03-02T07:51:04;13.70;55.80
13440;DHT22;6792;57.698;11.946;2024-03-02T07:53:33;13.70;55.50
13440;DHT22;6792;57.698;11.946;2024-03-02T07:56:03;13.70;55.10
13440;DHT22;6792;57.698;11.946;2024-03-02T07:58:34;13.70;55.50
13440;DHT22;6792;57.698;11.946;2024-03-02T08:01:05;13.70;55.50
13440;DHT22;6792;57.698;11.946;2024-03-02T08:03:38;13.70;55.60
13440;DHT22;6792;57.698;11.946;2024-03-02T08:06:10;13.70;55.50
13440;DHT22;6792;57.698;11.946;2024-03-02T08:08:41;13.70;55.10
13440;DHT22;6792;57.698;11.946;2024-03-02T08:11:14;13.70;55.70
13440;DHT22;6792;57.698;11.946;2024-03-02T08:13:47;13.80;55.70
13440;DHT22;6792;57.698;11.946;2024-03-02T08:19:05;13.80;55.20
13440;DHT22;6792;57.698;11.946;2024-03-02T08:21:43;13.80;55.80
13440;DHT22;6792;57.698;11.946;2024-03-02T08:24:16;13.80;55.30
13440;DHT22;6792;57.698;11.946;2024-03-02T08:26:49;13.80;55.80
13440;DHT22;6792;57.698;11.946;2024-03-02T08:29:22;13.90;55.80
13440;DHT22;6792;57.698;11.946;2024-03-02T08:31:52;13.90;55.70
13440;DHT22;6792;57.698;11.946;2024-03-02T08:37:00;13.90;55.30
13440;DHT22;6792;57.698;11.946;2024-03-02T08:39:30;14.00;55.90
13440;DHT22;6792;57.698;11.946;2024-03-02T08:42:04;14.00;55.80
13440;DHT22;6792;57.698;11.946;2024-03-02T08:44:33;14.00;55.80
13440;DHT22;6792;57.698;11.946;2024-03-02T08:47:03;14.10;56.20
13440;DHT22;6792;57.698;11.946;2024-03-02T08:49:33;14.10;55.90
13440;DHT22;6792;57.698;11.946;2024-03-02T08:52:03;14.20;55.80
13440;DHT22;6792;57.698;11.946;2024-03-02T08:54:32;14.20;55.80
13440;DHT22;6792;57.698;11.946;2024-03-02T08:57:04;14.30;55.80
13440;DHT22;6792;57.698;11.946;2024-03-02T08:59:35;14.30;55.80
13440;DHT22;6792;57.698;11.946;2024-03-02T09:02:05;14.30;55.80
13440;DHT22;6792;57.698;11.946;2024-03-02T09:04:34;14.40;55.80
13440;DHT22;6792;57.698;11.946;2024-03-02T09:07:04;14.40;55.80
13440;DHT22;6792;57.698;11.946;2024-03-02T09:09:35;14.40;55.80
13440;DHT22;6792;57.698;11.946;2024-03-02T09:12:08;14.40;55.90
13440;DHT22;6792;57.698;11.946;2024-03-02T09:14:44;14.40;55.90
13440;DHT22;6792;57.698;11.946;2024-03-02T09:17:16;14.40;56.00
13440;DHT22;6792;57.698;11.946;2024-03-02T09:19:49;14.50;56.00
13440;DHT22;6792;57.698;11.946;2024-03-02T09:22:20;14.50;56.00
13440;DHT22;6792;57.698;11.946;2024-03-02T09:24:52;14.50;55.50
13440;DHT22;6792;57.698;11.946;2024-03-02T09:27:23;14.50;56.10
13440;DHT22;6792;57.698;11.946;2024-03-02T09:29:52;14.60;56.10
13440;DHT22;6792;57.698;11.946;2024-03-02T09:32:21;14.70;56.10
13440;DHT22;6792;57.698;11.946;2024-03-02T09:34:52;14.70;56.00
13440;DHT22;6792;57.698;11.946;2024-03-02T09:37:23;14.80;56.10
13440;DHT22;6792;57.698;11.946;2024-03-02T09:39:52;14.80;56.00
13440;DHT22;6792;57.698;11.946;2024-03-02T09:42:22;14.90;56.10
13440;DHT22;6792;57.698;11.946;2024-03-02T09:44:52;14.90;56.10
13440;DHT22;6792;57.698;11.946;2024-03-02T09:47:21;15.00;56.60
13440;DHT22;6792;57.698;11.946;2024-03-02T09:52:29;15.10;55.50
13440;DHT22;6792;57.698;11.946;2024-03-02T09:54:59;15.10;55.40
13440;DHT22;6792;57.698;11.946;2024-03-02T09:57:29;15.10;56.00
13440;DHT22;6792;57.698;11.946;2024-03-02T09:59:59;15.10;56.00
13440;DHT22;6792;57.698;11.946;2024-03-02T10:02:29;15.20;56.10
13440;DHT22;6792;57.698;11.946;2024-03-02T10:04:59;15.20;56.10
13440;DHT22;6792;57.698;11.946;2024-03-02T10:07:34;15.20;56.20
13440;DHT22;6792;57.698;11.946;2024-03-02T10:10:14;15.20;56.20
13440;DHT22;6792;57.698;11.946;2024-03-02T10:12:45;15.30;56.40
13440;DHT22;6792;57.698;11.946;2024-03-02T10:15:14;15.30;56.20
13440;DHT22;6792;57.698;11.946;2024-03-02T10:17:45;15.30;56.20
13440;DHT22;6792;57.698;11.946;2024-03-02T10:23:15;15.40;55.70
13440;DHT22;6792;57.698;11.946;2024-03-02T10:25:45;15.40;55.80
13440;DHT22;6792;57.698;11.946;2024-03-02T10:28:20;15.40;56.40
13440;DHT22;6792;57.698;11.946;2024-03-02T10:30:51;15.50;56.40
13440;DHT22;6792;57.698;11.946;2024-03-02T10:33:35;15.50;56.40
13440;DHT22;6792;57.698;11.946;2024-03-02T10:36:11;15.60;56.40
13440;DHT22;6792;57.698;11.946;2024-03-02T10:38:50;15.60;56.30
13440;DHT22;6792;57.698;11.946;2024-03-02T10:41:33;15.60;56.50
13440;DHT22;6792;57.698;11.946;2024-03-02T10:44:09;15.60;56.20
13440;DHT22;6792;57.698;11.946;2024-03-02T10:46:43;15.70;56.30
13440;DHT22;6792;57.698;11.946;2024-03-02T10:49:32;15.70;56.30
13440;DHT22;6792;57.698;11.946;2024-03-02T10:52:09;15.70;55.70
13440;DHT22;6792;57.698;11.946;2024-03-02T10:54:40;15.70;56.30
13440;DHT22;6792;57.698;11.946;2024-03-02T10:57:15;15.70;55.80
13440;DHT22;6792;57.698;11.946;2024-03-02T10:59:50;15.80;56.40
13440;DHT22;6792;57.698;11.946;2024-03-02T11:02:20;15.80;56.40
13440;DHT22;6792;57.698;11.946;2024-03-02T11:04:54;15.80;56.40
13440;DHT22;6792;57.698;11.946;2024-03-02T11:07:31;15.80;56.50
13440;DHT22;6792;57.698;11.946;2024-03-02T11:10:09;15.80;55.90
13440;DHT22;6792;57.698;11.946;2024-03-02T11:12:48;15.90;56.40
13440;DHT22;6792;57.698;11.946;2024-03-02T11:18:16;15.90;56.30
13440;DHT22;6792;57.698;11.946;2024-03-02T11:20:47;15.90;56.40
13440;DHT22;6792;57.698;11.946;2024-03-02T11:23:36;16.00;56.30
13440;DHT22;6792;57.698;11.946;2024-03-02T11:26:31;16.00;56.30
13440;DHT22;6792;57.698;11.946;2024-03-02T11:29:05;16.00;56.30
13440;DHT22;6792;57.698;11.946;2024-03-02T11:32:02;16.00;56.30
13440;DHT22;6792;57.698;11.946;2024-03-02T11:34:53;16.10;55.80
13440;DHT22;6792;57.698;11.946;2024-03-02T11:37:20;16.00;55.90
13440;DHT22;6792;57.698;11.946;2024-03-02T11:39:51;16.10;56.50
13440;DHT22;6792;57.698;11.946;2024-03-02T11:42:25;16.10;56.40
13440;DHT22;6792;57.698;11.946;2024-03-02T11:44:57;16.10;56.40
13440;DHT22;6792;57.698;11.946;2024-03-02T11:47:28;16.10;56.30
13440;DHT22;6792;57.698;11.946;2024-03-02T11:50:04;16.10;56.30
13440;DHT22;6792;57.698;11.946;2024-03-02T11:52:43;16.10;56.40
13440;DHT22;6792;57.698;11.946;2024-03-02T11:55:16;16.10;56.60
13440;DHT22;6792;57.698;11.946;2024-03-02T11:57:47;16.10;56.40
13440;DHT22;6792;57.698;11.946;2024-03-02T12:00:19;16.10;56.40
13440;DHT22;6792;57.698;11.946;2024-03-02T12:02:59;16.10;56.30
13440;DHT22;6792;57.698;11.946;2024-03-02T12:05:27;16.20;56.40
13440;DHT22;6792;57.698;11.946;2024-03-02T12:07:58;16.10;56.40
13440;DHT22;6792;57.698;11.946;2024-03-02T12:10:28;16.10;56.40
13440;DHT22;6792;57.698;11.946;2024-03-02T12:12:58;16.10;56.40
13440;DHT22;6792;57.698;11.946;2024-03-02T12:15:29;16.10;56.40
13440;DHT22;6792;57.698;11.946;2024-03-02T12:17:59;16.10;56.40
13440;DHT22;6792;57.698;11.946;2024-03-02T12:20:36;16.10;56.30
13440;DHT22;6792;57.698;11.946;2024-03-02T12:23:28;16.20;56.40
13440;DHT22;6792;57.698;11.946;2024-03-02T12:26:02;16.10;55.80
13440;DHT22;6792;57.698;11.946;2024-03-02T12:28:36;16.20;56.00
13440;DHT22;6792;57.698;11.946;2024-03-02T12:31:14;16.20;56.40
13440;DHT22;6792;57.698;11.946;2024-03-02T12:33:48;16.20;56.40
13440;DHT22;6792;57.698;11.946;2024-03-02T12:36:21;16.10;56.30
13440;DHT22;6792;57.698;11.946;2024-03-02T12:38:55;16.20;56.40
13440;DHT22;6792;57.698;11.946;2024-03-02T12:41:32;16.10;56.30
13440;DHT22;6792;57.698;11.946;2024-03-02T12:44:05;16.10;56.40
13440;DHT22;6792;57.698;11.946;2024-03-02T12:46:37;16.20;55.90
13440;DHT22;6792;57.698;11.946;2024-03-02T12:49:14;16.20;55.90
13440;DHT22;6792;57.698;11.946;2024-03-02T12:51:46;16.20;55.90
13440;DHT22;6792;57.698;11.946;2024-03-02T12:54:17;16.20;55.80
13440;DHT22;6792;57.698;11.946;2024-03-02T12:56:56;16.20;56.40
13440;DHT22;6792;57.698;11.946;2024-03-02T12:59:26;16.20;56.40
13440;DHT22;6792;57.698;11.946;2024-03-02T13:01:56;16.20;56.40
13440;DHT22;6792;57.698;11.946;2024-03-02T13:04:26;16.30;55.80
13440;DHT22;6792;57.698;11.946;2024-03-02T13:06:58;16.30;56.40
13440;DHT22;6792;57.698;11.946;2024-03-02T13:09:35;16.30;55.80
13440;DHT22;6792;57.698;11.946;2024-03-02T13:12:12;16.30;55.80
13440;DHT22;6792;57.698;11.946;2024-03-02T13:14:47;16.30;56.40
13440;DHT22;6792;57.698;11.946;2024-03-02T13:17:26;16.30;57.00
13440;DHT22;6792;57.698;11.946;2024-03-02T13:20:05;16.30;56.40
13440;DHT22;6792;57.698;11.946;2024-03-02T13:22:42;16.30;55.90
13440;DHT22;6792;57.698;11.946;2024-03-02T13:25:11;16.30;56.40
13440;DHT22;6792;57.698;11.946;2024-03-02T13:27:40;16.30;56.30
13440;DHT22;6792;57.698;11.946;2024-03-02T13:30:11;16.30;56.30
13440;DHT22;6792;57.698;11.946;2024-03-02T13:32:40;16.30;56.30
13440;DHT22;6792;57.698;11.946;2024-03-02T13:35:09;16.40;56.40
13440;DHT22;6792;57.698;11.946;2024-03-02T13:37:39;16.30;56.30
13440;DHT22;6792;57.698;11.946;2024-03-02T13:40:10;16.30;55.80
13440;DHT22;6792;57.698;11.946;2024-03-02T13:42:40;16.30;56.30
13440;DHT22;6792;57.698;11.946;2024-03-02T13:45:12;16.30;56.40
13440;DHT22;6792;57.698;11.946;2024-03-02T13:47:42;16.30;56.40
13440;DHT22;6792;57.698;11.946;2024-03-02T13:50:11;16.30;56.40
13440;DHT22;6792;57.698;11.946;2024-03-02T13:52:40;16.30;56.40
13440;DHT22;6792;57.698;11.946;2024-03-02T13:55:09;16.30;56.40
13440;DHT22;6792;57.698;11.946;2024-03-02T13:57:38;16.30;56.40
13440;DHT22;6792;57.698;11.946;2024-03-02T14:00:10;16.30;56.50
13440;DHT22;6792;57.698;11.946;2024-03-02T14:02:40;16.30;56.50
13440;DHT22;6792;57.698;11.946;2024-03-02T14:05:09;16.40;56.60
13440;DHT22;6792;57.698;11.946;2024-03-02T14:07:39;16.40;56.50
13440;DHT22;6792;57.698;11.946;2024-03-02T14:10:12;16.40;56.00
13440;DHT22;6792;57.698;11.946;2024-03-02T14:12:44;16.40;56.00
13440;DHT22;6792;57.698;11.946;2024-03-02T14:15:14;16.40;56.60
13440;DHT22;6792;57.698;11.946;2024-03-02T14:17:43;16.40;56.50
13440;DHT22;6792;57.698;11.946;2024-03-02T14:20:13;16.30;55.90
13440;DHT22;6792;57.698;11.946;2024-03-02T14:22:42;16.30;56.50
13440;DHT22;6792;57.698;11.946;2024-03-02T14:25:12;16.30;56.60
13440;DHT22;6792;57.698;11.946;2024-03-02T14:27:41;16.30;56.60
13440;DHT22;6792;57.698;11.946;2024-03-02T14:30:13;16.30;56.60
13440;DHT22;6792;57.698;11.946;2024-03-02T14:32:43;16.30;56.10
13440;DHT22;6792;57.698;11.946;2024-03-02T14:35:12;16.30;56.60
13440;DHT22;6792;57.698;11.946;2024-03-02T14:40:19;16.30;56.10
13440;DHT22;6792;57.698;11.946;2024-03-02T14:42:50;16.30;56.70
13440;DHT22;6792;57.698;11.946;2024-03-02T14:45:19;16.30;56.00
13440;DHT22;6792;57.698;11.946;2024-03-02T14:50:29;16.40;56.10
13440;DHT22;6792;57.698;11.946;2024-03-02T14:53:00;16.40;56.60
13440;DHT22;6792;57.698;11.946;2024-03-02T14:55:30;16.40;56.60
13440;DHT22;6792;57.698;11.946;2024-03-02T14:58:00;16.40;56.60
13440;DHT22;6792;57.698;11.946;2024-03-02T15:00:30;16.40;56.60
13440;DHT22;6792;57.698;11.946;2024-03-02T15:02:59;16.40;56.60
13440;DHT22;6792;57.698;11.946;2024-03-02T15:05:29;16.40;56.60
13440;DHT22;6792;57.698;11.946;2024-03-02T15:07:59;16.40;56.60
13440;DHT22;6792;57.698;11.946;2024-03-02T15:10:30;16.40;56.60
13440;DHT22;6792;57.698;11.946;2024-03-02T15:13:02;16.40;56.60
13440;DHT22;6792;57.698;11.946;2024-03-02T15:15:32;16.40;56.70
13440;DHT22;6792;57.698;11.946;2024-03-02T15:18:06;16.40;56.00
13440;DHT22;6792;57.698;11.946;2024-03-02T15:23:05;16.40;56.10
13440;DHT22;6792;57.698;11.946;2024-03-02T15:25:34;16.40;56.00
13440;DHT22;6792;57.698;11.946;2024-03-02T15:28:07;16.40;57.20
13440;DHT22;6792;57.698;11.946;2024-03-02T15:30:36;16.40;56.50
13440;DHT22;6792;57.698;11.946;2024-03-02T15:33:06;16.40;56.00
13440;DHT22;6792;57.698;11.946;2024-03-02T15:35:36;16.40;56.70
13440;DHT22;6792;57.698;11.946;2024-03-02T15:38:15;16.30;56.10
13440;DHT22;6792;57.698;11.946;2024-03-02T15:40:55;16.30;56.70
13440;DHT22;6792;57.698;11.946;2024-03-02T15:43:26;16.30;56.80
13440;DHT22;6792;57.698;11.946;2024-03-02T15:45:56;16.30;56.20
13440;DHT22;6792;57.698;11.946;2024-03-02T15:48:25;16.30;56.70
13440;DHT22;6792;57.698;11.946;2024-03-02T15:50:56;16.30;56.80
13440;DHT22;6792;57.698;11.946;2024-03-02T15:53:26;16.30;56.80
13440;DHT22;6792;57.698;11.946;2024-03-02T15:55:55;16.30;56.80
13440;DHT22;6792;57.698;11.946;2024-03-02T15:58:24;16.30;56.80
13440;DHT22;6792;57.698;11.946;2024-03-02T16:00:55;16.30;56.90
13440;DHT22;6792;57.698;11.946;2024-03-02T16:03:25;16.30;56.80
13440;DHT22;6792;57.698;11.946;2024-03-02T16:05:55;16.30;56.80
13440;DHT22;6792;57.698;11.946;2024-03-02T16:08:24;16.30;56.80
13440;DHT22;6792;57.698;11.946;2024-03-02T16:10:53;16.30;56.90
13440;DHT22;6792;57.698;11.946;2024-03-02T16:13:23;16.30;56.90
13440;DHT22;6792;57.698;11.946;2024-03-02T16:15:52;16.30;56.90
13440;DHT22;6792;57.698;11.946;2024-03-02T16:18:21;16.30;56.90
13440;DHT22;6792;57.698;11.946;2024-03-02T16:20:50;16.30;56.80
13440;DHT22;6792;57.698;11.946;2024-03-02T16:23:21;16.30;56.80
13440;DHT22;6792;57.698;11.946;2024-03-02T16:25:50;16.30;56.80
13440;DHT22;6792;57.698;11.946;2024-03-02T16:28:20;16.30;56.80
13440;DHT22;6792;57.698;11.946;2024-03-02T16:30:50;16.30;56.80
13440;DHT22;6792;57.698;11.946;2024-03-02T16:33:21;16.30;56.80
13440;DHT22;6792;57.698;11.946;2024-03-02T16:35:52;16.30;56.80
13440;DHT22;6792;57.698;11.946;2024-03-02T16:38:21;16.30;56.80
13440;DHT22;6792;57.698;11.946;2024-03-02T16:40:51;16.30;56.90
13440;DHT22;6792;57.698;11.946;2024-03-02T16:43:24;16.30;56.90
13440;DHT22;6792;57.698;11.946;2024-03-02T16:45:53;16.30;56.30
13440;DHT22;6792;57.698;11.946;2024-03-02T16:48:31;16.30;56.90
13440;DHT22;6792;57.698;11.946;2024-03-02T16:51:04;16.20;56.40
13440;DHT22;6792;57.698;11.946;2024-03-02T16:53:35;16.20;56.90
13440;DHT22;6792;57.698;11.946;2024-03-02T16:56:06;16.20;57.00
13440;DHT22;6792;57.698;11.946;2024-03-02T16:58:36;16.30;56.90
13440;DHT22;6792;57.698;11.946;2024-03-02T17:01:09;16.30;56.90